Time;durP1;ratioP1;P1;durP2;ratioP2;P2;SDS_P1;SDS_P2;PMS_P1;PMS_P2;Temp;Humidity;BMP_temperature;BMP_pressure;BME280_temperature;BME280_humidity;BME280_pressure;Samples;Min_cycle;Max_cycle;Signal;HPM_P1;HPM_P2
2022/05/26 00:01:59;;;;;;;0.00;0.00;;;;;;;;;;5089778;28;20537;-60
2022/05/26 00:04:27;;;;;;;0.00;0.00;;;;;;;;;;5089297;28;20052;-60
2022/05/26 00:06:55;;;;;;;0.00;0.00;;;;;;;;;;5088953;28;20071;-60
2022/05/26 00:09:22;;;;;;;0.28;0.10;;;;;;;;;;5080886;28;20052;-60
2022/05/26 00:11:48;;;;;;;0.00;0.00;;;;;;;;;;5066282;28;20566;-60
2022/05/26 00:14:15;;;;;;;0.20;0.17;;;;;;;;;;5048287;28;20140;-60
2022/05/26 00:16:42;;;;;;;0.00;0.00;;;;;;;;;;5047423;28;20057;-60
2022/05/26 00:19:09;;;;;;;0.00;0.00;;;;;;;;;;5079790;28;20505;-60
2022/05/26 00:21:35;;;;;;;0.00;0.00;;;;;;;;;;5089501;28;20056;-60
2022/05/26 00:24:02;;;;;;;0.35;0.10;;;;;;;;;;5089609;28;20057;-60
2022/05/26 00:26:28;;;;;;;0.00;0.00;;;;;;;;;;5088086;28;20053;-60
2022/05/26 00:28:55;;;;;;;0.00;0.00;;;;;;;;;;5080515;28;20056;-60
2022/05/26 00:31:22;;;;;;;0.00;0.00;;;;;;;;;;5089465;28;20552;-60
2022/05/26 00:33:48;;;;;;;0.08;0.08;;;;;;;;;;5089066;28;20127;-60
2022/05/26 00:36:15;;;;;;;0.55;0.32;;;;;;;;;;5088863;28;20080;-60
2022/05/26 00:38:42;;;;;;;0.00;0.00;;;;;;;;;;5083234;28;20056;-60
2022/05/26 00:41:10;;;;;;;0.00;0.00;;;;;;;;;;5088622;28;20056;-60
2022/05/26 00:43:45;;;;;;;0.00;0.00;;;;;;;;;;5080754;28;20061;-60
2022/05/26 00:46:17;;;;;;;0.00;0.00;;;;;;;;;;5048637;28;20081;-60
2022/05/26 00:48:53;;;;;;;0.00;0.00;;;;;;;;;;5064398;28;20122;-60
2022/05/26 00:51:23;;;;;;;0.00;0.00;;;;;;;;;;5089390;28;20080;-60
2022/05/26 00:53:52;;;;;;;1.02;0.52;;;;;;;;;;5088450;28;20052;-60
2022/05/26 00:56:25;;;;;;;0.00;0.00;;;;;;;;;;5075764;28;20053;-60
2022/05/26 00:58:57;;;;;;;0.00;0.00;;;;;;;;;;5082392;28;20452;-60
2022/05/26 01:01:24;;;;;;;0.00;0.00;;;;;;;;;;5088534;28;20210;-60
2022/05/26 01:03:53;;;;;;;0.00;0.00;;;;;;;;;;5087888;28;20567;-60
2022/05/26 01:06:19;;;;;;;0.00;0.00;;;;;;;;;;5085464;28;20107;-60
2022/05/26 01:08:54;;;;;;;0.00;0.00;;;;;;;;;;5084836;28;20052;-60
2022/05/26 01:11:22;;;;;;;0.00;0.00;;;;;;;;;;5088639;28;20045;-60
2022/05/26 01:13:53;;;;;;;0.00;0.00;;;;;;;;;;5088683;28;20056;-60
2022/05/26 01:16:27;;;;;;;0.00;0.00;;;;;;;;;;5080693;28;20122;-60
2022/05/26 01:18:58;;;;;;;0.00;0.00;;;;;;;;;;5080311;28;20222;-60
2022/05/26 01:21:28;;;;;;;0.15;0.08;;;;;;;;;;5085227;28;20056;-60
2022/05/26 01:24:12;;;;;;;0.10;0.10;;;;;;;;;;5088129;28;20052;-60
2022/05/26 01:26:56;;;;;;;0.00;0.00;;;;;;;;;;5083430;28;20146;-60
2022/05/26 01:29:41;;;;;;;0.00;0.00;;;;;;;;;;5084047;28;20631;-60
2022/05/26 01:32:20;;;;;;;0.00;0.00;;;;;;;;;;5087591;28;20095;-60
2022/05/26 01:35:04;;;;;;;0.00;0.00;;;;;;;;;;5085584;28;20057;-60
2022/05/26 01:37:34;;;;;;;0.00;0.00;;;;;;;;;;5084345;28;20114;-60
2022/05/26 01:40:15;;;;;;;0.00;0.00;;;;;;;;;;5087759;28;20052;-60
2022/05/26 01:43:02;;;;;;;0.00;0.00;;;;;;;;;;5088702;28;20106;-60
2022/05/26 01:45:41;;;;;;;0.00;0.00;;;;;;;;;;5042859;28;20052;-60
2022/05/26 01:48:07;;;;;;;;;;;;;;;;;;5083979;28;20147;-60
2022/05/26 01:50:41;;;;;;;0.00;0.00;;;;;;;;;;5086234;28;46053;-60
2022/05/26 01:53:25;;;;;;;0.75;0.75;;;;;;;;;;5087598;28;20083;-60
2022/05/26 01:55:57;;;;;;;0.00;0.00;;;;;;;;;;5072294;28;20049;-60
2022/05/26 01:58:28;;;;;;;0.10;0.10;;;;;;;;;;5077388;28;20623;-60
2022/05/26 02:00:56;;;;;;;0.00;0.00;;;;;;;;;;5086736;28;20122;-60
2022/05/26 02:03:24;;;;;;;0.00;0.00;;;;;;;;;;5081542;28;20052;-60
2022/05/26 02:05:53;;;;;;;0.08;0.08;;;;;;;;;;5087608;28;20067;-60
2022/05/26 02:08:25;;;;;;;0.00;0.00;;;;;;;;;;5087515;28;20590;-60
2022/05/26 02:10:59;;;;;;;0.00;0.00;;;;;;;;;;5087685;28;20056;-60
2022/05/26 02:13:28;;;;;;;0.15;0.15;;;;;;;;;;5081347;28;20886;-60
2022/05/26 02:15:56;;;;;;;0.17;0.08;;;;;;;;;;5087457;28;20115;-60
2022/05/26 02:18:39;;;;;;;0.00;0.00;;;;;;;;;;5087332;28;20090;-60
2022/05/26 02:21:15;;;;;;;0.00;0.00;;;;;;;;;;5087098;28;20098;-60
2022/05/26 02:24:02;;;;;;;0.00;0.00;;;;;;;;;;5083384;28;20145;-60
2022/05/26 02:26:30;;;;;;;0.00;0.00;;;;;;;;;;5086688;28;20085;-60
2022/05/26 02:31:42;;;;;;;0.95;0.63;;;;;;;;;;5078915;28;20980;-60
2022/05/26 02:34:09;;;;;;;0.00;0.00;;;;;;;;;;5086979;28;20048;-60
2022/05/26 02:36:36;;;;;;;0.00;0.00;;;;;;;;;;5086492;28;20102;-60
2022/05/26 02:39:04;;;;;;;0.00;0.00;;;;;;;;;;5087015;28;20115;-60
2022/05/26 02:41:31;;;;;;;0.00;0.00;;;;;;;;;;5061780;28;20084;-60
2022/05/26 02:43:58;;;;;;;0.00;0.00;;;;;;;;;;5076054;28;20057;-60
2022/05/26 02:46:32;;;;;;;0.00;0.00;;;;;;;;;;5090493;28;20075;-60
2022/05/26 02:49:02;;;;;;;0.00;0.00;;;;;;;;;;5090644;28;20167;-60
2022/05/26 02:51:37;;;;;;;0.00;0.00;;;;;;;;;;5082246;28;20060;-60
2022/05/26 02:54:23;;;;;;;4.15;0.70;;;;;;;;;;5088961;28;20564;-60
2022/05/26 02:56:56;;;;;;;0.15;0.00;;;;;;;;;;5086693;28;20052;-60
2022/05/26 02:59:22;;;;;;;0.00;0.00;;;;;;;;;;5090463;28;20069;-60
2022/05/26 03:02:01;;;;;;;0.00;0.00;;;;;;;;;;5080877;28;20057;-60
2022/05/26 03:04:32;;;;;;;0.28;0.22;;;;;;;;;;5090583;28;20392;-60
2022/05/26 03:07:01;;;;;;;0.05;0.05;;;;;;;;;;5090655;28;20060;-60
2022/05/26 03:09:27;;;;;;;0.75;0.75;;;;;;;;;;5087631;28;20106;-60
2022/05/26 03:11:55;;;;;;;0.00;0.00;;;;;;;;;;5087282;28;20088;-60
2022/05/26 03:14:22;;;;;;;0.00;0.00;;;;;;;;;;5090200;28;20052;-60
2022/05/26 03:16:49;;;;;;;0.00;0.00;;;;;;;;;;5085564;28;20053;-60
2022/05/26 03:19:15;;;;;;;0.00;0.00;;;;;;;;;;5090036;28;20206;-60
2022/05/26 03:21:42;;;;;;;0.00;0.00;;;;;;;;;;5065368;28;20077;-60
2022/05/26 03:24:09;;;;;;;0.00;0.00;;;;;;;;;;5049289;28;20092;-60
2022/05/26 03:26:35;;;;;;;0.00;0.00;;;;;;;;;;5069230;28;20060;-60
2022/05/26 03:29:02;;;;;;;0.20;0.10;;;;;;;;;;5090008;28;20083;-60
2022/05/26 03:31:30;;;;;;;0.00;0.00;;;;;;;;;;5083244;28;20544;-60
2022/05/26 03:42:12;;;;;;;0.00;0.00;;;;;;;;;;5087441;28;20048;-60
2022/05/26 03:44:38;;;;;;;0.10;0.10;;;;;;;;;;5090201;28;20057;-59
2022/05/26 03:47:05;;;;;;;0.00;0.00;;;;;;;;;;5082429;28;20511;-59
2022/05/26 03:49:32;;;;;;;0.00;0.00;;;;;;;;;;5088829;28;20079;-59
2022/05/26 03:51:58;;;;;;;0.00;0.00;;;;;;;;;;5052550;28;21617;-59
2022/05/26 03:54:25;;;;;;;0.00;0.00;;;;;;;;;;5049421;28;20471;-59
2022/05/26 03:56:51;;;;;;;0.20;0.10;;;;;;;;;;5068968;28;20056;-59
2022/05/26 03:59:18;;;;;;;0.00;0.00;;;;;;;;;;5089963;28;20111;-59
2022/05/26 04:01:44;;;;;;;0.00;0.00;;;;;;;;;;5057016;28;20050;-59
2022/05/26 04:04:11;;;;;;;0.00;0.00;;;;;;;;;;5055978;28;20080;-59
2022/05/26 04:06:37;;;;;;;0.00;0.00;;;;;;;;;;5089851;28;20060;-59
2022/05/26 04:09:07;;;;;;;0.00;0.00;;;;;;;;;;5089987;28;20056;-59
2022/05/26 04:11:33;;;;;;;0.10;0.03;;;;;;;;;;5081068;28;20056;-59
2022/05/26 04:13:59;;;;;;;0.00;0.00;;;;;;;;;;5089303;28;20056;-59
2022/05/26 04:16:26;;;;;;;0.00;0.00;;;;;;;;;;5088418;28;20487;-59
2022/05/26 04:18:53;;;;;;;0.00;0.00;;;;;;;;;;5089594;28;20067;-59
2022/05/26 04:21:19;;;;;;;0.00;0.00;;;;;;;;;;5064967;28;20167;-59
2022/05/26 04:23:46;;;;;;;0.00;0.00;;;;;;;;;;5048285;28;20108;-59
2022/05/26 04:26:12;;;;;;;0.00;0.00;;;;;;;;;;5048765;28;20560;-59
2022/05/26 04:28:38;;;;;;;0.00;0.00;;;;;;;;;;5047778;28;20495;-59
2022/05/26 04:31:05;;;;;;;0.00;0.00;;;;;;;;;;5059246;28;20118;-59
2022/05/26 04:33:32;;;;;;;0.00;0.00;;;;;;;;;;5078012;28;20182;-59
2022/05/26 04:36:01;;;;;;;0.00;0.00;;;;;;;;;;5048825;28;20057;-59
2022/05/26 04:38:27;;;;;;;0.00;0.00;;;;;;;;;;5059011;28;20056;-59
2022/05/26 04:41:00;;;;;;;0.00;0.00;;;;;;;;;;5088715;28;20098;-59
2022/05/26 04:43:27;;;;;;;0.00;0.00;;;;;;;;;;5081363;28;20481;-59
2022/05/26 04:45:53;;;;;;;0.00;0.00;;;;;;;;;;5074118;28;20522;-59
2022/05/26 04:48:21;;;;;;;0.00;0.00;;;;;;;;;;5047837;28;20132;-59
2022/05/26 04:50:49;;;;;;;0.28;0.10;;;;;;;;;;5048276;28;20057;-59
2022/05/26 04:53:16;;;;;;;0.00;0.00;;;;;;;;;;5048038;28;20057;-59
2022/05/26 04:55:43;;;;;;;0.00;0.00;;;;;;;;;;5048340;28;20435;-59
2022/05/26 04:58:10;;;;;;;0.00;0.00;;;;;;;;;;5086366;28;20318;-59
2022/05/26 05:00:36;;;;;;;0.00;0.00;;;;;;;;;;5087754;28;20084;-60
2022/05/26 05:03:02;;;;;;;0.00;0.00;;;;;;;;;;5088377;28;20610;-59
2022/05/26 05:05:29;;;;;;;0.00;0.00;;;;;;;;;;5085905;28;20056;-59
2022/05/26 05:07:55;;;;;;;0.00;0.00;;;;;;;;;;5081028;28;20602;-59
2022/05/26 05:10:22;;;;;;;0.00;0.00;;;;;;;;;;5088332;28;20576;-59
2022/05/26 05:12:49;;;;;;;0.00;0.00;;;;;;;;;;5088015;28;20060;-59
2022/05/26 05:15:19;;;;;;;0.00;0.00;;;;;;;;;;5084198;28;20119;-59
2022/05/26 05:17:46;;;;;;;0.00;0.00;;;;;;;;;;5088096;28;20115;-59
2022/05/26 05:20:12;;;;;;;0.00;0.00;;;;;;;;;;5085137;28;20091;-60
2022/05/26 05:22:45;;;;;;;0.00;0.00;;;;;;;;;;5088179;28;20083;-60
2022/05/26 05:25:18;;;;;;;0.00;0.00;;;;;;;;;;5074292;28;20053;-60
2022/05/26 05:27:49;;;;;;;0.00;0.00;;;;;;;;;;5087782;28;20145;-60
2022/05/26 05:30:17;;;;;;;0.00;0.00;;;;;;;;;;5088350;28;20507;-60
2022/05/26 05:32:50;;;;;;;0.00;0.00;;;;;;;;;;5086816;28;20106;-59
2022/05/26 05:35:22;;;;;;;0.00;0.00;;;;;;;;;;5084582;28;20499;-59
2022/05/26 05:37:48;;;;;;;0.00;0.00;;;;;;;;;;5087549;28;20137;-59
2022/05/26 05:40:15;;;;;;;0.00;0.00;;;;;;;;;;5087690;28;20133;-59
2022/05/26 05:42:41;;;;;;;0.00;0.00;;;;;;;;;;5082791;28;21326;-60
2022/05/26 05:45:08;;;;;;;0.00;0.00;;;;;;;;;;5083829;28;20517;-60
2022/05/26 05:47:34;;;;;;;0.00;0.00;;;;;;;;;;5088021;28;20099;-59
2022/05/26 05:50:01;;;;;;;0.00;0.00;;;;;;;;;;5087461;28;20092;-59
2022/05/26 05:52:28;;;;;;;0.00;0.00;;;;;;;;;;5075463;28;20054;-59
2022/05/26 05:54:55;;;;;;;0.00;0.00;;;;;;;;;;5085621;28;20048;-60
2022/05/26 05:57:21;;;;;;;0.00;0.00;;;;;;;;;;5052201;28;20073;-60
2022/05/26 05:59:48;;;;;;;0.00;0.00;;;;;;;;;;5059680;28;20108;-60
2022/05/26 06:02:15;;;;;;;0.00;0.00;;;;;;;;;;5067598;28;20057;-60
2022/05/26 06:05:00;;;;;;;0.00;0.00;;;;;;;;;;5075250;28;20045;-60
2022/05/26 06:07:26;;;;;;;0.00;0.00;;;;;;;;;;5067897;28;20099;-60
2022/05/26 06:09:52;;;;;;;0.00;0.00;;;;;;;;;;5059364;28;20499;-61
2022/05/26 06:12:20;;;;;;;0.10;0.10;;;;;;;;;;5067069;28;20930;-60
2022/05/26 06:14:46;;;;;;;0.00;0.00;;;;;;;;;;5066720;28;20057;-60
2022/05/26 06:17:13;;;;;;;0.00;0.00;;;;;;;;;;5067029;28;20053;-60
2022/05/26 06:19:40;;;;;;;0.00;0.00;;;;;;;;;;5068770;28;20061;-61
2022/05/26 06:22:07;;;;;;;0.00;0.00;;;;;;;;;;5082356;28;20552;-61
2022/05/26 06:24:35;;;;;;;0.00;0.00;;;;;;;;;;5049216;28;20484;-60
2022/05/26 06:29:49;;;;;;;0.00;0.00;;;;;;;;;;5054541;28;20054;-60
2022/05/26 06:29:51;;;;;;;0.00;0.00;;;;;;;;;;5047445;28;20119;-60
2022/05/26 06:37:50;;;;;;;0.00;0.00;;;;;;;;;;5063991;28;20103;-60
2022/05/26 06:40:17;;;;;;;0.00;0.00;;;;;;;;;;5052938;28;20057;-60
2022/05/26 06:42:44;;;;;;;0.00;0.00;;;;;;;;;;5054573;28;20054;-61
2022/05/26 06:45:11;;;;;;;0.00;0.00;;;;;;;;;;5052360;28;20060;-60
2022/05/26 06:47:37;;;;;;;0.10;0.10;;;;;;;;;;5067168;28;20504;-60
2022/05/26 06:50:04;;;;;;;0.00;0.00;;;;;;;;;;5074974;28;20479;-60
2022/05/26 06:52:30;;;;;;;0.00;0.00;;;;;;;;;;5066156;28;20839;-60
2022/05/26 06:54:58;;;;;;;0.17;0.10;;;;;;;;;;5079668;28;20049;-60
2022/05/26 06:57:25;;;;;;;;;;;;;;;;;;5087049;28;20056;-60
2022/05/26 06:59:51;;;;;;;0.00;0.00;;;;;;;;;;5085440;28;46105;-60
2022/05/26 07:02:18;;;;;;;0.20;0.10;;;;;;;;;;5077957;28;20490;-60
2022/05/26 07:04:44;;;;;;;0.10;0.10;;;;;;;;;;5079301;28;20053;-60
2022/05/26 07:07:12;;;;;;;0.00;0.00;;;;;;;;;;5081364;28;20057;-60
2022/05/26 07:09:38;;;;;;;1.00;0.32;;;;;;;;;;5084074;28;20052;-60
2022/05/26 07:12:05;;;;;;;0.00;0.00;;;;;;;;;;5087329;28;20588;-61
2022/05/26 07:14:31;;;;;;;0.00;0.00;;;;;;;;;;5086774;28;20576;-60
2022/05/26 07:16:57;;;;;;;0.00;0.00;;;;;;;;;;5078000;28;20565;-60
2022/05/26 07:19:24;;;;;;;0.00;0.00;;;;;;;;;;5085227;28;20470;-60
2022/05/26 07:21:50;;;;;;;0.00;0.00;;;;;;;;;;5079585;28;20053;-60
2022/05/26 07:24:18;;;;;;;0.00;0.00;;;;;;;;;;5072217;28;20081;-60
2022/05/26 07:26:45;;;;;;;0.00;0.00;;;;;;;;;;5066593;28;20056;-60
2022/05/26 07:29:12;;;;;;;0.00;0.00;;;;;;;;;;5074159;28;20080;-60
2022/05/26 07:31:39;;;;;;;0.00;0.00;;;;;;;;;;5060596;28;20147;-60
2022/05/26 07:34:15;;;;;;;0.00;0.00;;;;;;;;;;5072310;28;20128;-61
2022/05/26 07:42:14;;;;;;;0.00;0.00;;;;;;;;;;5069969;28;20437;-60
2022/05/26 07:44:42;;;;;;;0.00;0.00;;;;;;;;;;5062761;28;20536;-60
2022/05/26 07:47:08;;;;;;;;;;;;;;;;;;5070125;28;20110;-60
2022/05/26 07:49:36;;;;;;;0.00;0.00;;;;;;;;;;5067772;28;44909;-61
2022/05/26 07:52:03;;;;;;;0.00;0.00;;;;;;;;;;5072036;28;20090;-60
2022/05/26 07:54:29;;;;;;;0.00;0.00;;;;;;;;;;5076133;28;20057;-62
2022/05/26 07:56:56;;;;;;;0.30;0.20;;;;;;;;;;5058266;28;20057;-60
2022/05/26 07:59:23;;;;;;;0.00;0.00;;;;;;;;;;5079524;28;20057;-61
2022/05/26 08:01:50;;;;;;;0.00;0.00;;;;;;;;;;5082011;28;20053;-63
2022/05/26 08:04:16;;;;;;;0.00;0.00;;;;;;;;;;5077740;28;20053;-62
2022/05/26 08:06:46;;;;;;;0.00;0.00;;;;;;;;;;5066931;28;20057;-64
2022/05/26 08:09:14;;;;;;;0.00;0.00;;;;;;;;;;5065328;28;20668;-64
2022/05/26 08:11:40;;;;;;;0.00;0.00;;;;;;;;;;5084520;28;20507;-63
2022/05/26 08:14:07;;;;;;;0.10;0.08;;;;;;;;;;5083544;28;20048;-61
2022/05/26 08:16:34;;;;;;;0.00;0.00;;;;;;;;;;5069184;28;20049;-62
2022/05/26 08:19:00;;;;;;;0.00;0.00;;;;;;;;;;5069312;28;20060;-62
2022/05/26 08:21:27;;;;;;;0.70;0.30;;;;;;;;;;5068358;28;20103;-64
2022/05/26 08:23:53;;;;;;;0.00;0.00;;;;;;;;;;5069054;28;20053;-61
2022/05/26 08:26:20;;;;;;;0.00;0.00;;;;;;;;;;5068604;28;20142;-66
2022/05/26 08:28:46;;;;;;;0.00;0.00;;;;;;;;;;5069719;28;20496;-65
2022/05/26 08:31:16;;;;;;;0.00;0.00;;;;;;;;;;5089306;28;20667;-64
2022/05/26 08:33:42;;;;;;;0.00;0.00;;;;;;;;;;5088492;28;20930;-63
2022/05/26 08:36:10;;;;;;;0.00;0.00;;;;;;;;;;5088750;28;20098;-63
2022/05/26 08:38:36;;;;;;;0.00;0.00;;;;;;;;;;5087503;28;20549;-64
2022/05/26 08:41:03;;;;;;;0.00;0.00;;;;;;;;;;5088971;28;20206;-65
2022/05/26 08:43:41;;;;;;;0.20;0.20;;;;;;;;;;5088839;28;20138;-67
2022/05/26 08:46:09;;;;;;;0.00;0.00;;;;;;;;;;5088682;28;20063;-66
2022/05/26 08:48:38;;;;;;;;;;;;;;;;;;5088187;28;20060;-66
2022/05/26 08:51:05;;;;;;;0.52;0.52;;;;;;;;;;5087206;28;46022;-65
2022/05/26 08:53:36;;;;;;;0.00;0.00;;;;;;;;;;5087156;28;20096;-63
2022/05/26 08:56:03;;;;;;;0.00;0.00;;;;;;;;;;5088530;28;20483;-63
2022/05/26 08:58:36;;;;;;;0.00;0.00;;;;;;;;;;5071572;28;20507;-64
2022/05/26 09:01:05;;;;;;;0.00;0.00;;;;;;;;;;5068065;28;20154;-63
2022/05/26 09:03:34;;;;;;;0.00;0.00;;;;;;;;;;5068890;28;20057;-64
2022/05/26 09:06:00;;;;;;;;;;;;;;;;;;5069203;28;20482;-65
2022/05/26 09:14:00;;;;;;;0.00;0.00;;;;;;;;;;5078186;28;20059;-61
2022/05/26 09:16:28;;;;;;;0.00;0.00;;;;;;;;;;5073146;28;20194;-60
2022/05/26 09:19:15;;;;;;;0.00;0.00;;;;;;;;;;5052775;28;20203;-61
2022/05/26 09:21:42;;;;;;;0.00;0.00;;;;;;;;;;5077558;28;20067;-60
2022/05/26 09:24:15;;;;;;;5.15;0.55;;;;;;;;;;5083271;28;20052;-60
2022/05/26 09:26:44;;;;;;;0.00;0.00;;;;;;;;;;5066498;28;20093;-60
2022/05/26 09:29:11;;;;;;;0.00;0.00;;;;;;;;;;5072642;28;20106;-60
2022/05/26 09:31:44;;;;;;;0.00;0.00;;;;;;;;;;5074961;28;20103;-59
2022/05/26 09:34:16;;;;;;;0.00;0.00;;;;;;;;;;5080725;28;20510;-60
2022/05/26 09:36:59;;;;;;;3.70;0.32;;;;;;;;;;5081122;28;20099;-61
2022/05/26 09:39:30;;;;;;;0.00;0.00;;;;;;;;;;5068282;28;20061;-59
2022/05/26 09:41:57;;;;;;;0.00;0.00;;;;;;;;;;5076027;28;20061;-62
2022/05/26 09:44:33;;;;;;;0.00;0.00;;;;;;;;;;5074318;28;20119;-59
2022/05/26 09:47:08;;;;;;;0.00;0.00;;;;;;;;;;5073107;28;20127;-59
2022/05/26 09:49:37;;;;;;;0.00;0.00;;;;;;;;;;5066826;28;20053;-59
2022/05/26 09:52:25;;;;;;;0.10;0.10;;;;;;;;;;5067366;28;20049;-59
2022/05/26 09:55:27;;;;;;;0.00;0.00;;;;;;;;;;5066015;28;20065;-59
2022/05/26 09:58:06;;;;;;;0.00;0.00;;;;;;;;;;4990417;28;20086;-59
2022/05/26 10:00:37;;;;;;;0.00;0.00;;;;;;;;;;5046802;28;20400;-59
2022/05/26 10:03:24;;;;;;;0.00;0.00;;;;;;;;;;5068923;28;20083;-59
2022/05/26 10:06:02;;;;;;;0.70;0.47;;;;;;;;;;5020947;28;20598;-59
2022/05/26 10:08:34;;;;;;;0.20;0.20;;;;;;;;;;5046473;28;20060;-59
2022/05/26 10:11:09;;;;;;;0.43;0.20;;;;;;;;;;5051076;28;20198;-59
2022/05/26 10:13:42;;;;;;;0.00;0.00;;;;;;;;;;5078213;28;20056;-61
2022/05/26 10:16:14;;;;;;;0.00;0.00;;;;;;;;;;5070900;28;20056;-62
2022/05/26 10:18:58;;;;;;;0.00;0.00;;;;;;;;;;5086819;28;20052;-62
2022/05/26 10:21:28;;;;;;;0.52;0.52;;;;;;;;;;5087076;28;20087;-63
2022/05/26 10:24:09;;;;;;;0.00;0.00;;;;;;;;;;5087595;28;20576;-62
2022/05/26 10:26:36;;;;;;;0.00;0.00;;;;;;;;;;5086167;28;20082;-62
2022/05/26 10:29:08;;;;;;;0.00;0.00;;;;;;;;;;5086982;28;20048;-62
2022/05/26 10:31:37;;;;;;;0.00;0.00;;;;;;;;;;5086782;28;20065;-62
2022/05/26 10:34:27;;;;;;;0.47;0.35;;;;;;;;;;5086785;28;20053;-62
2022/05/26 10:37:12;;;;;;;0.00;0.00;;;;;;;;;;5087132;28;20111;-62
2022/05/26 10:39:57;;;;;;;0.00;0.00;;;;;;;;;;5086969;28;20056;-62
2022/05/26 10:42:31;;;;;;;0.00;0.00;;;;;;;;;;5086403;28;20544;-62
2022/05/26 10:45:06;;;;;;;1.15;0.40;;;;;;;;;;5087188;28;20060;-62
2022/05/26 10:47:51;;;;;;;0.00;0.00;;;;;;;;;;5086865;28;20053;-62
2022/05/26 10:50:26;;;;;;;0.00;0.00;;;;;;;;;;5086701;28;20079;-62
2022/05/26 10:53:01;;;;;;;0.00;0.00;;;;;;;;;;5086711;28;20064;-62
2022/05/26 10:55:45;;;;;;;0.00;0.00;;;;;;;;;;5086983;28;20423;-62
2022/05/26 10:58:18;;;;;;;0.00;0.00;;;;;;;;;;5086404;28;20064;-62
2022/05/26 11:00:49;;;;;;;0.00;0.00;;;;;;;;;;5087067;28;20085;-62
2022/05/26 11:03:29;;;;;;;0.00;0.00;;;;;;;;;;5089817;28;20053;-62
2022/05/26 11:06:02;;;;;;;0.00;0.00;;;;;;;;;;5090443;28;20060;-62
2022/05/26 11:08:37;;;;;;;0.00;0.00;;;;;;;;;;5089836;28;20057;-62
2022/05/26 11:11:09;;;;;;;0.73;0.45;;;;;;;;;;5089685;28;21115;-62
2022/05/26 11:13:42;;;;;;;0.00;0.00;;;;;;;;;;5089861;28;20053;-62
2022/05/26 11:19:32;;;;;;;0.00;0.00;;;;;;;;;;5090285;28;20091;-62
2022/05/26 11:21:59;;;;;;;0.00;0.00;;;;;;;;;;5089895;28;20904;-61
2022/05/26 11:24:26;;;;;;;0.00;0.00;;;;;;;;;;5088622;28;20072;-62
2022/05/26 11:27:07;;;;;;;0.00;0.00;;;;;;;;;;5089317;28;20060;-62
2022/05/26 11:29:39;;;;;;;0.00;0.00;;;;;;;;;;5089738;28;20056;-62
2022/05/26 11:37:39;;;;;;;0.00;0.00;;;;;;;;;;5089787;28;20126;-62
2022/05/26 11:40:07;;;;;;;0.00;0.00;;;;;;;;;;5089232;28;20474;-62
2022/05/26 11:42:35;;;;;;;0.00;0.00;;;;;;;;;;5089232;28;20052;-62
2022/05/26 11:45:07;;;;;;;0.20;0.10;;;;;;;;;;5089975;28;20052;-61
2022/05/26 11:47:47;;;;;;;0.00;0.00;;;;;;;;;;5089828;28;20088;-62
2022/05/26 11:50:20;;;;;;;0.90;0.20;;;;;;;;;;5089331;28;20487;-62
2022/05/26 11:52:46;;;;;;;0.00;0.00;;;;;;;;;;5089308;28;20056;-62
2022/05/26 11:55:12;;;;;;;0.00;0.00;;;;;;;;;;5089837;28;20056;-62
2022/05/26 11:57:42;;;;;;;0.10;0.08;;;;;;;;;;5089628;28;20048;-62
2022/05/26 12:00:14;;;;;;;0.00;0.00;;;;;;;;;;5089530;28;20094;-62
2022/05/26 12:02:41;;;;;;;0.00;0.00;;;;;;;;;;5089433;28;20057;-62
2022/05/26 12:05:26;;;;;;;0.00;0.00;;;;;;;;;;5089619;28;20102;-62
2022/05/26 12:07:52;;;;;;;0.00;0.00;;;;;;;;;;5089082;28;20517;-62
2022/05/26 12:10:20;;;;;;;3.92;2.00;;;;;;;;;;5089632;28;20098;-62
2022/05/26 12:12:47;;;;;;;;;;;;;;;;;;5088330;28;20048;-62
2022/05/26 12:15:22;;;;;;;0.00;0.00;;;;;;;;;;5088388;28;45139;-62
2022/05/26 12:17:52;;;;;;;0.00;0.00;;;;;;;;;;5088852;28;20110;-62
2022/05/26 12:20:21;;;;;;;0.00;0.00;;;;;;;;;;5088763;28;20483;-62
2022/05/26 12:22:50;;;;;;;0.00;0.00;;;;;;;;;;5089067;28;20514;-62
2022/05/26 12:25:20;;;;;;;0.00;0.00;;;;;;;;;;5088375;28;20048;-62
2022/05/26 12:27:55;;;;;;;0.00;0.00;;;;;;;;;;5088693;28;20060;-62
2022/05/26 12:30:40;;;;;;;0.63;0.08;;;;;;;;;;5088287;28;20138;-62
2022/05/26 12:33:19;;;;;;;0.00;0.00;;;;;;;;;;5088761;28;20058;-62
2022/05/26 12:35:52;;;;;;;0.00;0.00;;;;;;;;;;5088285;28;20071;-62
2022/05/26 12:38:24;;;;;;;0.00;0.00;;;;;;;;;;5089058;28;20103;-62
2022/05/26 12:40:58;;;;;;;0.25;0.05;;;;;;;;;;5087563;28;20056;-62
2022/05/26 12:43:25;;;;;;;0.00;0.00;;;;;;;;;;5088120;28;20122;-62
2022/05/26 12:45:52;;;;;;;0.00;0.00;;;;;;;;;;5089007;28;20063;-62
2022/05/26 12:48:24;;;;;;;2.10;0.75;;;;;;;;;;5088769;28;20060;-62
2022/05/26 12:50:51;;;;;;;0.00;0.00;;;;;;;;;;5088542;28;20053;-62
2022/05/26 12:53:21;;;;;;;0.00;0.00;;;;;;;;;;5088988;28;20106;-62
2022/05/26 12:55:55;;;;;;;0.00;0.00;;;;;;;;;;5088380;28;20102;-62
2022/05/26 12:58:26;;;;;;;0.00;0.00;;;;;;;;;;5088403;28;20098;-62
2022/05/26 13:00:55;;;;;;;0.00;0.00;;;;;;;;;;5088673;28;20072;-62
2022/05/26 13:03:40;;;;;;;0.00;0.00;;;;;;;;;;5088345;28;20099;-62
2022/05/26 13:06:08;;;;;;;0.00;0.00;;;;;;;;;;5088501;28;20053;-62
2022/05/26 13:08:42;;;;;;;0.00;0.00;;;;;;;;;;5087670;28;20506;-62
2022/05/26 13:11:12;;;;;;;0.75;0.75;;;;;;;;;;5088408;28;20138;-62
2022/05/26 13:13:41;;;;;;;0.00;0.00;;;;;;;;;;5088409;28;20056;-62
2022/05/26 13:16:26;;;;;;;0.35;0.30;;;;;;;;;;5088197;28;20076;-62
2022/05/26 13:19:09;;;;;;;0.00;0.00;;;;;;;;;;5088573;28;20050;-62
2022/05/26 13:21:35;;;;;;;0.00;0.00;;;;;;;;;;5087324;28;20150;-62
2022/05/26 13:24:02;;;;;;;0.00;0.00;;;;;;;;;;5086904;28;20466;-63
2022/05/26 13:26:28;;;;;;;0.10;0.10;;;;;;;;;;5087534;28;20049;-62
2022/05/26 13:28:56;;;;;;;0.00;0.00;;;;;;;;;;5088570;28;20512;-62
2022/05/26 13:34:09;;;;;;;0.00;0.00;;;;;;;;;;5087603;28;44717;-63
2022/05/26 13:36:39;;;;;;;0.00;0.00;;;;;;;;;;5087465;28;20060;-62
2022/05/26 13:39:08;;;;;;;0.00;0.00;;;;;;;;;;5088075;28;20530;-62
2022/05/26 13:41:44;;;;;;;0.00;0.00;;;;;;;;;;5087822;28;20152;-62
2022/05/26 13:44:15;;;;;;;0.00;0.00;;;;;;;;;;5087630;28;20052;-63
2022/05/26 13:46:45;;;;;;;0.00;0.00;;;;;;;;;;5087046;28;20049;-62
2022/05/26 13:49:22;;;;;;;0.03;0.03;;;;;;;;;;5086738;28;20116;-62
2022/05/26 13:51:49;;;;;;;0.00;0.00;;;;;;;;;;5087960;28;20133;-63
2022/05/26 13:54:22;;;;;;;0.00;0.00;;;;;;;;;;5087356;28;20048;-62
2022/05/26 13:56:48;;;;;;;0.00;0.00;;;;;;;;;;5087667;28;20106;-62
2022/05/26 13:59:15;;;;;;;1.50;0.22;;;;;;;;;;5075666;28;20580;-64
2022/05/26 14:01:52;;;;;;;0.00;0.00;;;;;;;;;;5065743;28;20747;-61
2022/05/26 14:04:30;;;;;;;0.00;0.00;;;;;;;;;;5067441;28;20053;-60
2022/05/26 14:06:57;;;;;;;0.00;0.00;;;;;;;;;;5066963;28;20495;-60
2022/05/26 14:09:26;;;;;;;0.00;0.00;;;;;;;;;;5066180;28;20099;-62
2022/05/26 14:12:05;;;;;;;0.00;0.00;;;;;;;;;;5067360;28;20061;-62
2022/05/26 14:14:38;;;;;;;0.10;0.10;;;;;;;;;;5066864;28;20538;-62
2022/05/26 14:17:05;;;;;;;0.00;0.00;;;;;;;;;;5067569;28;20091;-63
2022/05/26 14:19:34;;;;;;;0.17;0.17;;;;;;;;;;5066537;28;20045;-63
2022/05/26 14:22:00;;;;;;;;;;;;;;;;;;5066849;28;20088;-63
2022/05/26 14:24:26;;;;;;;0.00;0.00;;;;;;;;;;5066042;28;44723;-62
2022/05/26 14:27:04;;;;;;;0.00;0.00;;;;;;;;;;5067320;28;20057;-62
2022/05/26 14:29:32;;;;;;;0.00;0.00;;;;;;;;;;5066567;28;20056;-62
2022/05/26 14:32:13;;;;;;;0.10;0.10;;;;;;;;;;5066882;28;20056;-62
2022/05/26 14:34:50;;;;;;;0.00;0.00;;;;;;;;;;5066904;28;20052;-62
2022/05/26 14:37:18;;;;;;;0.00;0.00;;;;;;;;;;5070301;28;20135;-62
2022/05/26 14:39:45;;;;;;;0.00;0.00;;;;;;;;;;5069941;28;20057;-61
2022/05/26 14:42:15;;;;;;;0.00;0.00;;;;;;;;;;5070544;28;20406;-62
2022/05/26 14:44:45;;;;;;;0.65;0.65;;;;;;;;;;5070314;28;20474;-62
2022/05/26 14:47:13;;;;;;;0.20;0.10;;;;;;;;;;5070174;28;20130;-62
2022/05/26 14:49:41;;;;;;;0.00;0.00;;;;;;;;;;5069801;28;20127;-62
2022/05/26 14:52:10;;;;;;;0.00;0.00;;;;;;;;;;5069055;28;20080;-62
2022/05/26 14:57:23;;;;;;;0.00;0.00;;;;;;;;;;5086297;28;20053;-62
2022/05/26 14:59:49;;;;;;;0.00;0.00;;;;;;;;;;5070120;28;20544;-62
2022/05/26 15:02:16;;;;;;;0.43;0.22;;;;;;;;;;5070084;28;20056;-62
2022/05/26 15:04:43;;;;;;;0.00;0.00;;;;;;;;;;5069760;28;20068;-62
2022/05/26 15:07:11;;;;;;;0.00;0.00;;;;;;;;;;5069408;28;20492;-62
2022/05/26 15:09:37;;;;;;;0.00;0.00;;;;;;;;;;5070185;28;20496;-63
2022/05/26 15:12:04;;;;;;;0.22;0.10;;;;;;;;;;5070579;28;20469;-63
2022/05/26 15:14:32;;;;;;;0.00;0.00;;;;;;;;;;5069647;28;20057;-62
2022/05/26 15:16:59;;;;;;;0.10;0.10;;;;;;;;;;5064519;28;20846;-64
2022/05/26 15:19:29;;;;;;;0.00;0.00;;;;;;;;;;5084889;28;20139;-65
2022/05/26 15:21:56;;;;;;;0.10;0.10;;;;;;;;;;5070055;28;20138;-64
2022/05/26 15:24:23;;;;;;;0.00;0.00;;;;;;;;;;5070512;28;20057;-64
2022/05/26 15:26:50;;;;;;;0.25;0.20;;;;;;;;;;5081457;28;20607;-64
2022/05/26 15:29:17;;;;;;;0.20;0.10;;;;;;;;;;5069556;28;20049;-64
2022/05/26 15:31:43;;;;;;;0.00;0.00;;;;;;;;;;5069473;28;20211;-64
2022/05/26 15:34:10;;;;;;;0.00;0.00;;;;;;;;;;5069510;28;20077;-63
2022/05/26 15:36:36;;;;;;;1.35;1.25;;;;;;;;;;5079128;28;20582;-63
2022/05/26 15:39:03;;;;;;;0.00;0.00;;;;;;;;;;5070738;28;20495;-63
2022/05/26 15:41:29;;;;;;;0.00;0.00;;;;;;;;;;5070157;28;20053;-63
2022/05/26 15:43:56;;;;;;;0.00;0.00;;;;;;;;;;5055716;28;20087;-63
2022/05/26 15:46:26;;;;;;;1.00;0.85;;;;;;;;;;5074383;28;20110;-63